Time;durP1;ratioP1;P1;durP2;ratioP2;P2;SDS_P1;SDS_P2;PMS_P1;PMS_P2;Temp;Humidity;BMP_temperature;BMP_pressure;BME280_temperature;BME280_humidity;BME280_pressure;Samples;Min_cycle;Max_cycle;Signal;HPM_P1;HPM_P2
2022/09/13 00:00:35;;;;;;;0.30;0.30;;;12.00;99.90;;;;;;5115024;28;20016;-72
2022/09/13 00:03:01;;;;;;;0.73;0.63;;;12.00;99.90;;;;;;5115688;28;20028;-71
2022/09/13 00:05:27;;;;;;;0.57;0.50;;;12.00;99.90;;;;;;5115542;28;20116;-71
2022/09/13 00:07:53;;;;;;;0.50;0.50;;;11.90;99.90;;;;;;5115451;28;20049;-72
2022/09/13 00:10:20;;;;;;;1.92;1.65;;;11.90;99.90;;;;;;5115537;28;20028;-72
2022/09/13 00:12:48;;;;;;;0.88;0.88;;;11.90;99.90;;;;;;5115355;28;20035;-72
2022/09/13 00:15:15;;;;;;;0.50;0.50;;;11.90;99.90;;;;;;5115741;28;20048;-71
2022/09/13 00:17:41;;;;;;;0.47;0.47;;;11.90;99.90;;;;;;5097228;28;20020;-72
2022/09/13 00:20:07;;;;;;;0.68;0.68;;;11.90;99.90;;;;;;5115323;28;20030;-72
2022/09/13 00:22:33;;;;;;;0.40;0.40;;;11.90;99.90;;;;;;5096969;28;20023;-72
2022/09/13 00:24:59;;;;;;;0.52;0.52;;;11.80;99.90;;;;;;5115144;28;20024;-72
2022/09/13 00:27:25;;;;;;;0.80;0.80;;;11.80;99.90;;;;;;5114948;28;20030;-71
2022/09/13 00:29:50;;;;;;;0.65;0.57;;;11.70;99.90;;;;;;5115189;28;20095;-71
2022/09/13 00:32:17;;;;;;;0.40;0.40;;;11.70;99.90;;;;;;5115074;28;20433;-72
2022/09/13 00:34:43;;;;;;;0.30;0.30;;;11.70;99.90;;;;;;5115068;28;20020;-72
2022/09/13 00:37:09;;;;;;;1.27;0.50;;;11.70;99.90;;;;;;5115020;28;20027;-73
2022/09/13 00:39:35;;;;;;;0.30;0.30;;;11.70;99.90;;;;;;5115089;28;20376;-72
2022/09/13 00:42:01;;;;;;;0.40;0.40;;;11.80;99.90;;;;;;5114867;28;20039;-72
2022/09/13 00:45:04;;;;;;;0.50;0.50;;;11.80;99.90;;;;;;5115186;28;20024;-72
2022/09/13 00:47:40;;;;;;;0.63;0.50;;;11.70;99.90;;;;;;5114682;28;20020;-72
2022/09/13 00:50:20;;;;;;;0.68;0.63;;;11.70;99.90;;;;;;5115025;28;20032;-72
2022/09/13 00:53:09;;;;;;;1.05;0.55;;;11.70;99.90;;;;;;5114753;28;20031;-72
2022/09/13 00:55:41;;;;;;;0.55;0.55;;;11.80;99.90;;;;;;5114658;28;20102;-72
2022/09/13 00:58:16;;;;;;;0.65;0.57;;;11.70;99.90;;;;;;5096443;28;20106;-72
2022/09/13 01:00:42;;;;;;;0.90;0.70;;;11.70;99.90;;;;;;5114520;28;20523;-72
2022/09/13 01:03:11;;;;;;;0.80;0.65;;;11.70;99.90;;;;;;5114457;28;20058;-72
2022/09/13 01:06:09;;;;;;;1.05;0.73;;;11.70;99.90;;;;;;5114371;28;20068;-72
2022/09/13 01:08:37;;;;;;;1.95;1.50;;;11.80;99.90;;;;;;5114518;28;20027;-72
2022/09/13 01:11:10;;;;;;;0.70;0.70;;;11.80;99.90;;;;;;5114060;28;20028;-72
2022/09/13 01:13:37;;;;;;;0.47;0.47;;;11.80;99.90;;;;;;5114145;28;20035;-72
2022/09/13 01:16:03;;;;;;;4.13;0.75;;;11.70;99.90;;;;;;5114307;28;20498;-72
2022/09/13 01:18:29;;;;;;;0.77;0.77;;;11.60;99.90;;;;;;5114190;28;20032;-71
2022/09/13 01:21:16;;;;;;;0.65;0.65;;;11.50;99.90;;;;;;5114239;28;20106;-72
2022/09/13 01:24:00;;;;;;;1.08;0.50;;;11.40;99.90;;;;;;5095936;28;20015;-72
2022/09/13 01:26:57;;;;;;;0.85;0.75;;;11.40;99.90;;;;;;5096148;28;20031;-72
2022/09/13 01:29:50;;;;;;;0.40;0.40;;;11.40;99.90;;;;;;5095967;28;20024;-72
2022/09/13 01:32:37;;;;;;;0.65;0.52;;;11.40;99.90;;;;;;5114288;28;20059;-72
2022/09/13 01:35:11;;;;;;;0.93;0.70;;;11.40;99.90;;;;;;5095980;28;20107;-72
2022/09/13 01:37:54;;;;;;;3.30;0.95;;;11.30;99.90;;;;;;5095928;28;20047;-72
2022/09/13 01:40:22;;;;;;;2.17;0.73;;;11.30;99.90;;;;;;5113973;28;20023;-72
2022/09/13 01:43:10;;;;;;;0.70;0.70;;;11.30;99.90;;;;;;5113999;28;20115;-71
2022/09/13 01:45:36;;;;;;;0.73;0.73;;;11.30;99.90;;;;;;5114184;28;20387;-72
2022/09/13 01:48:13;;;;;;;0.55;0.55;;;11.30;99.90;;;;;;5095891;28;20110;-72
2022/09/13 01:50:45;;;;;;;0.30;0.30;;;11.30;99.90;;;;;;5095750;28;20034;-71
2022/09/13 01:53:40;;;;;;;1.67;1.05;;;11.20;99.90;;;;;;5095705;28;20063;-72
2022/09/13 01:56:34;;;;;;;0.40;0.40;;;11.20;99.90;;;;;;5113778;28;20081;-72
2022/09/13 01:59:17;;;;;;;0.57;0.57;;;11.10;99.90;;;;;;5095638;28;20055;-72
2022/09/13 02:01:58;;;;;;;0.40;0.40;;;11.20;99.90;;;;;;5113917;28;20076;-71
2022/09/13 02:04:28;;;;;;;0.63;0.45;;;11.10;99.90;;;;;;5113995;28;20489;-72
2022/09/13 02:07:03;;;;;;;0.50;0.40;;;11.10;99.90;;;;;;5095490;28;20102;-72
2022/09/13 02:09:32;;;;;;;0.77;0.77;;;;;;;;;;5113817;28;20032;-72
2022/09/13 02:12:06;;;;;;;0.55;0.55;;;11.00;99.90;;;;;;5113893;28;20036;-72
2022/09/13 02:14:42;;;;;;;0.93;0.93;;;11.00;99.90;;;;;;5095607;28;20034;-72
2022/09/13 02:17:23;;;;;;;0.50;0.50;;;11.00;99.90;;;;;;5113913;28;20026;-72
2022/09/13 02:19:55;;;;;;;0.40;0.40;;;11.00;99.90;;;;;;5095771;28;20023;-72
2022/09/13 02:22:27;;;;;;;0.85;0.82;;;10.90;99.90;;;;;;5113927;28;20399;-72
2022/09/13 02:24:58;;;;;;;0.55;0.50;;;10.90;99.90;;;;;;5117850;28;20020;-72
2022/09/13 02:27:28;;;;;;;0.80;0.80;;;11.00;99.90;;;;;;5099340;28;20034;-71
2022/09/13 02:29:58;;;;;;;0.60;0.60;;;11.00;99.90;;;;;;5117557;28;20060;-71
2022/09/13 02:32:34;;;;;;;0.60;0.60;;;11.00;99.90;;;;;;5117486;28;20387;-71
2022/09/13 02:35:12;;;;;;;1.33;0.98;;;11.00;99.90;;;;;;5098995;28;20540;-71
2022/09/13 02:37:41;;;;;;;1.23;0.70;;;11.00;99.90;;;;;;5117261;28;20036;-72
2022/09/13 02:40:13;;;;;;;0.80;0.80;;;11.00;99.90;;;;;;5117272;28;20012;-71
2022/09/13 02:42:49;;;;;;;0.50;0.50;;;11.00;99.90;;;;;;5117250;28;20270;-72
2022/09/13 02:45:19;;;;;;;0.68;0.68;;;11.00;99.90;;;;;;5117238;28;20015;-71
2022/09/13 02:47:56;;;;;;;1.02;0.93;;;11.00;99.90;;;;;;5098801;28;20054;-72
2022/09/13 02:50:43;;;;;;;0.40;0.40;;;10.90;99.90;;;;;;5117033;28;20405;-72
2022/09/13 02:53:21;;;;;;;0.82;0.60;;;10.80;99.90;;;;;;5116855;28;20059;-71
2022/09/13 02:56:22;;;;;;;0.50;0.50;;;10.80;99.90;;;;;;5117171;28;20019;-71
2022/09/13 02:59:26;;;;;;;0.55;0.55;;;10.70;99.90;;;;;;5098795;28;20510;-71
2022/09/13 03:01:58;;;;;;;0.52;0.52;;;10.80;99.90;;;;;;5082978;28;20122;-72
2022/09/13 03:04:27;;;;;;;0.60;0.60;;;10.80;99.90;;;;;;5116601;28;20100;-71
2022/09/13 03:06:53;;;;;;;0.52;0.52;;;10.70;99.90;;;;;;5116929;28;20035;-71
2022/09/13 03:09:19;;;;;;;0.73;0.60;;;10.70;99.90;;;;;;5116581;28;20065;-72
2022/09/13 03:12:22;;;;;;;0.73;0.68;;;10.80;99.90;;;;;;5116470;28;20047;-73
2022/09/13 03:15:23;;;;;;;1.27;0.38;;;10.70;99.90;;;;;;5117040;28;20051;-71
2022/09/13 03:17:54;;;;;;;0.50;0.50;;;10.60;99.90;;;;;;5116556;28;20072;-72
2022/09/13 03:20:46;;;;;;;10.05;2.05;;;10.50;99.90;;;;;;5098275;28;20023;-71
2022/09/13 03:23:41;;;;;;;0.57;0.57;;;10.60;99.90;;;;;;5097909;28;20034;-72
2022/09/13 03:26:09;;;;;;;0.63;0.63;;;10.70;99.90;;;;;;5116360;28;20102;-71
2022/09/13 03:29:13;;;;;;;2.78;1.85;;;10.80;99.90;;;;;;5116202;28;20042;-70
2022/09/13 03:32:05;;;;;;;1.58;0.80;;;10.80;99.90;;;;;;5097839;28;20070;-71
2022/09/13 03:34:34;;;;;;;0.82;0.45;;;10.90;99.90;;;;;;5115644;28;20099;-71
2022/09/13 03:37:26;;;;;;;1.88;1.00;;;10.70;99.90;;;;;;5097993;28;20028;-72
2022/09/13 03:40:23;;;;;;;1.90;1.38;;;10.80;99.90;;;;;;5116164;28;20066;-71
2022/09/13 03:43:02;;;;;;;1.00;0.82;;;10.80;99.90;;;;;;5096432;28;20055;-72
2022/09/13 03:45:34;;;;;;;0.82;0.82;;;10.80;99.90;;;;;;5115872;28;20081;-72
2022/09/13 03:48:01;;;;;;;0.95;0.82;;;10.70;99.90;;;;;;5097677;28;20421;-72
2022/09/13 03:50:28;;;;;;;0.60;0.60;;;10.60;99.90;;;;;;5115910;28;20011;-71
2022/09/13 03:53:00;;;;;;;1.80;0.60;;;10.60;99.90;;;;;;5115984;28;20039;-72
2022/09/13 03:55:26;;;;;;;0.40;0.40;;;10.50;99.90;;;;;;5115881;28;20024;-72
2022/09/13 03:57:52;;;;;;;0.50;0.50;;;10.40;99.90;;;;;;5115740;28;20031;-71
2022/09/13 04:00:18;;;;;;;0.85;0.65;;;10.40;99.90;;;;;;5115648;28;20023;-72
2022/09/13 04:02:44;;;;;;;0.60;0.60;;;10.40;99.90;;;;;;5097530;28;20032;-72
2022/09/13 04:05:10;;;;;;;0.50;0.50;;;;;;;;;;5115290;28;20036;-72
2022/09/13 04:07:36;;;;;;;0.75;0.75;;;10.40;99.90;;;;;;5115525;28;20117;-72
2022/09/13 04:10:02;;;;;;;0.82;0.77;;;10.40;99.90;;;;;;5115698;28;20569;-71
2022/09/13 04:12:34;;;;;;;1.13;0.70;;;10.50;99.90;;;;;;5115361;28;20035;-72
2022/09/13 04:15:00;;;;;;;0.80;0.60;;;10.60;99.90;;;;;;5115641;28;20379;-71
2022/09/13 04:17:31;;;;;;;1.55;0.80;;;10.60;99.90;;;;;;5115810;28;20088;-71
2022/09/13 04:19:57;;;;;;;0.65;0.65;;;10.60;99.90;;;;;;5115208;28;20019;-72
2022/09/13 04:22:23;;;;;;;0.50;0.50;;;10.60;99.90;;;;;;5115120;28;20045;-72
2022/09/13 04:24:48;;;;;;;1.05;0.93;;;10.60;99.90;;;;;;5115209;28;20054;-72
2022/09/13 04:27:14;;;;;;;0.68;0.68;;;10.60;99.90;;;;;;5115248;28;20034;-72
2022/09/13 04:29:40;;;;;;;0.85;0.85;;;10.70;99.90;;;;;;5096920;28;20028;-71
2022/09/13 04:32:06;;;;;;;1.27;1.27;;;10.70;99.90;;;;;;5115146;28;20038;-72
2022/09/13 04:34:34;;;;;;;0.38;0.38;;;10.70;99.90;;;;;;5115143;28;20019;-71
2022/09/13 04:37:00;;;;;;;0.40;0.40;;;10.60;99.90;;;;;;5115550;28;20027;-72
2022/09/13 04:39:26;;;;;;;0.55;0.55;;;10.50;99.90;;;;;;5114840;28;20049;-71
2022/09/13 04:41:54;;;;;;;0.45;0.45;;;10.50;99.90;;;;;;5114885;28;20059;-71
2022/09/13 04:44:20;;;;;;;0.65;0.57;;;10.40;99.90;;;;;;5096621;28;20027;-72
2022/09/13 04:46:47;;;;;;;1.40;1.10;;;10.40;99.90;;;;;;5114502;28;20016;-73
2022/09/13 04:49:14;;;;;;;0.40;0.40;;;10.40;99.90;;;;;;5114757;28;20019;-72
2022/09/13 04:51:40;;;;;;;1.05;1.05;;;10.30;99.90;;;;;;5114662;28;20035;-73
2022/09/13 04:54:05;;;;;;;4.70;0.68;;;10.30;99.90;;;;;;5096430;28;20030;-72
2022/09/13 04:56:31;;;;;;;0.88;0.60;;;10.30;99.90;;;;;;5114732;28;20031;-71
2022/09/13 04:58:57;;;;;;;0.63;0.63;;;10.20;99.90;;;;;;5096121;28;20495;-72
2022/09/13 05:01:23;;;;;;;0.80;0.80;;;10.20;99.90;;;;;;5114539;28;20024;-72
2022/09/13 05:03:54;;;;;;;0.50;0.50;;;10.30;99.90;;;;;;5114296;28;20508;-71
2022/09/13 05:06:21;;;;;;;0.40;0.40;;;10.30;99.90;;;;;;5114683;28;20016;-71
2022/09/13 05:08:53;;;;;;;0.90;0.90;;;10.40;99.90;;;;;;5114613;28;20015;-72
2022/09/13 05:11:21;;;;;;;0.65;0.65;;;10.40;99.90;;;;;;5114272;28;20051;-71
2022/09/13 05:13:58;;;;;;;0.50;0.50;;;10.50;99.90;;;;;;5114309;28;20102;-72
2022/09/13 05:16:27;;;;;;;0.73;0.73;;;10.50;99.90;;;;;;5114245;28;20069;-72
2022/09/13 05:18:54;;;;;;;0.73;0.73;;;10.50;99.90;;;;;;5114448;28;20564;-73
2022/09/13 05:21:20;;;;;;;0.55;0.52;;;10.60;99.90;;;;;;5115796;28;20422;-73
2022/09/13 05:23:53;;;;;;;0.93;0.73;;;10.60;99.90;;;;;;5101285;28;20031;-72
2022/09/13 05:26:23;;;;;;;0.73;0.55;;;10.70;99.90;;;;;;5119500;28;20027;-73
2022/09/13 05:28:49;;;;;;;0.90;0.55;;;10.70;99.90;;;;;;5114412;28;20532;-72
2022/09/13 05:31:30;;;;;;;0.40;0.40;;;10.70;99.90;;;;;;5115052;28;20111;-76
2022/09/13 05:33:59;;;;;;;1.17;0.50;;;10.70;99.90;;;;;;5120583;28;20028;-76
2022/09/13 05:36:26;;;;;;;1.08;0.80;;;10.70;99.90;;;;;;5126038;28;20015;-77
2022/09/13 05:38:53;;;;;;;0.75;0.70;;;10.70;99.90;;;;;;5099776;28;20315;-77
2022/09/13 05:41:19;;;;;;;0.50;0.50;;;10.80;99.90;;;;;;5102024;28;20024;-75
2022/09/13 05:43:44;;;;;;;2.10;0.80;;;10.90;99.90;;;;;;5124714;28;20023;-74
2022/09/13 05:46:13;;;;;;;0.57;0.57;;;10.90;99.90;;;;;;5124251;28;20020;-73
2022/09/13 05:48:39;;;;;;;7.45;0.80;;;10.90;99.90;;;;;;5123781;28;20051;-74
2022/09/13 05:51:06;;;;;;;0.85;0.80;;;11.10;99.90;;;;;;5118635;28;20020;-74
2022/09/13 05:53:33;;;;;;;1.05;1.05;;;11.20;99.90;;;;;;5123628;28;20027;-75
2022/09/13 05:55:59;;;;;;;4.22;0.70;;;11.20;99.90;;;;;;5123600;28;20023;-75
2022/09/13 05:58:25;;;;;;;1.65;1.55;;;11.20;99.90;;;;;;5120045;28;20077;-74
2022/09/13 06:00:55;;;;;;;0.52;0.43;;;11.40;99.90;;;;;;5122625;28;20024;-74
2022/09/13 06:03:22;;;;;;;0.40;0.40;;;11.40;99.90;;;;;;5120293;28;20027;-75
2022/09/13 06:05:49;;;;;;;1.67;1.10;;;11.50;99.90;;;;;;5078190;28;20053;-74
2022/09/13 06:08:15;;;;;;;0.50;0.50;;;11.50;99.90;;;;;;5076364;28;20060;-73
2022/09/13 06:10:41;;;;;;;0.70;0.68;;;11.70;99.90;;;;;;5075822;28;20024;-73
2022/09/13 06:13:07;;;;;;;1.27;0.68;;;11.80;99.90;;;;;;5077101;28;20032;-74
2022/09/13 06:15:32;;;;;;;0.60;0.60;;;11.90;99.90;;;;;;5076234;28;20420;-73
2022/09/13 06:17:58;;;;;;;1.00;1.00;;;12.10;99.90;;;;;;5078718;28;20127;-74
2022/09/13 06:20:24;;;;;;;1.92;0.80;;;12.30;99.90;;;;;;5078003;28;20024;-74
2022/09/13 06:22:49;;;;;;;0.57;0.52;;;12.40;99.90;;;;;;5077007;28;20473;-75
2022/09/13 06:25:16;;;;;;;1.02;1.02;;;12.50;99.90;;;;;;5078432;28;20047;-75
2022/09/13 06:27:41;;;;;;;1.42;0.85;;;12.70;99.90;;;;;;5078296;28;20443;-74
2022/09/13 06:30:07;;;;;;;0.65;0.65;;;12.80;99.90;;;;;;5076352;28;20020;-75
2022/09/13 06:32:34;;;;;;;0.50;0.50;;;12.90;99.90;;;;;;5076330;28;20389;-76
2022/09/13 06:35:00;;;;;;;0.70;0.55;;;13.00;99.90;;;;;;5074946;28;20020;-75
2022/09/13 06:37:25;;;;;;;1.17;1.00;;;13.10;99.90;;;;;;5076459;28;20488;-74
2022/09/13 06:39:51;;;;;;;1.48;1.08;;;13.30;99.90;;;;;;5076189;28;20469;-74
2022/09/13 06:42:17;;;;;;;1.17;0.70;;;13.40;99.90;;;;;;5076381;28;20032;-75
2022/09/13 06:44:44;;;;;;;1.05;0.93;;;13.60;99.90;;;;;;5075971;28;20024;-74
2022/09/13 06:47:11;;;;;;;1.05;0.80;;;13.80;99.90;;;;;;5076353;28;20097;-75
2022/09/13 06:49:36;;;;;;;1.48;1.20;;;14.10;99.90;;;;;;5079044;28;20360;-75
2022/09/13 06:52:02;;;;;;;6.60;1.02;;;14.30;99.90;;;;;;5077014;28;20090;-75
2022/09/13 06:54:28;;;;;;;0.82;0.63;;;14.40;99.90;;;;;;5077084;28;20416;-75
2022/09/13 06:56:53;;;;;;;0.75;0.75;;;14.60;99.90;;;;;;5079606;28;20503;-75
2022/09/13 06:59:19;;;;;;;0.95;0.80;;;14.70;99.90;;;;;;5075916;28;20448;-75
2022/09/13 07:01:45;;;;;;;0.90;0.90;;;14.80;99.90;;;;;;5077997;28;20500;-74
2022/09/13 07:04:13;;;;;;;1.40;0.75;;;14.90;99.90;;;;;;5081332;28;20044;-75
2022/09/13 07:06:42;;;;;;;0.93;0.90;;;15.00;99.90;;;;;;5096719;28;20081;-75
2022/09/13 07:09:13;;;;;;;0.70;0.50;;;15.00;99.90;;;;;;5095649;28;20154;-76
2022/09/13 07:11:40;;;;;;;1.10;0.82;;;15.20;99.90;;;;;;5097248;28;20035;-76
2022/09/13 07:14:06;;;;;;;2.50;1.00;;;15.60;99.90;;;;;;5099093;28;20027;-75
2022/09/13 07:16:35;;;;;;;0.98;0.70;;;15.60;99.90;;;;;;5094612;28;20044;-75
2022/09/13 07:19:06;;;;;;;1.15;1.02;;;15.90;99.90;;;;;;5096427;28;20020;-75
2022/09/13 07:21:34;;;;;;;1.15;1.13;;;16.20;99.90;;;;;;5094446;28;20043;-76
2022/09/13 07:24:00;;;;;;;1.08;1.05;;;16.10;99.90;;;;;;5096030;28;20051;-75
2022/09/13 07:26:27;;;;;;;0.80;0.80;;;16.20;99.90;;;;;;5097690;28;20467;-75
2022/09/13 07:28:56;;;;;;;0.95;0.95;;;16.40;99.90;;;;;;5095741;28;20028;-75
2022/09/13 07:31:28;;;;;;;0.98;0.95;;;16.70;99.90;;;;;;5098061;28;20024;-76
2022/09/13 07:33:59;;;;;;;0.68;0.68;;;16.90;99.90;;;;;;5096385;28;20035;-76
2022/09/13 07:36:26;;;;;;;0.50;0.50;;;17.30;99.90;;;;;;5098201;28;20020;-75
2022/09/13 07:38:53;;;;;;;0.60;0.60;;;17.60;99.90;;;;;;5096154;28;20372;-75
2022/09/13 07:41:20;;;;;;;1.58;1.30;;;17.80;99.90;;;;;;5094431;28;20032;-76
2022/09/13 07:43:46;;;;;;;0.95;0.90;;;18.10;99.90;;;;;;5095330;28;20472;-76
2022/09/13 07:46:18;;;;;;;1.10;0.80;;;18.20;99.90;;;;;;5094154;28;20024;-75
2022/09/13 07:48:45;;;;;;;7.72;1.40;;;18.30;99.90;;;;;;5094243;28;20026;-76
2022/09/13 07:51:21;;;;;;;0.60;0.60;;;18.40;99.90;;;;;;5097651;28;20027;-76
2022/09/13 07:53:49;;;;;;;0.75;0.50;;;18.50;99.90;;;;;;5094938;28;20024;-76
2022/09/13 07:56:20;;;;;;;19.42;1.23;;;18.60;99.90;;;;;;5096264;28;20488;-76
2022/09/13 07:58:48;;;;;;;0.90;0.85;;;16.70;99.90;;;;;;5094201;28;20034;-76
2022/09/13 08:01:28;;;;;;;0.65;0.65;;;18.60;99.90;;;;;;5094664;28;20030;-77
2022/09/13 08:04:03;;;;;;;1.58;0.80;;;18.60;99.90;;;;;;5100179;28;20062;-75
2022/09/13 08:06:31;;;;;;;1.35;0.80;;;18.60;99.90;;;;;;5096233;28;20064;-75
2022/09/13 08:08:57;;;;;;;11.32;1.15;;;18.50;99.90;;;;;;5096978;28;20035;-76
2022/09/13 08:11:26;;;;;;;1.10;1.10;;;18.60;99.90;;;;;;5097233;28;20024;-76
2022/09/13 08:13:52;;;;;;;0.75;0.75;;;18.80;99.90;;;;;;5115115;28;20030;-76
2022/09/13 08:16:21;;;;;;;0.35;0.35;;;18.90;99.90;;;;;;5115477;28;20015;-76
2022/09/13 08:18:51;;;;;;;0.95;0.95;;;18.90;99.90;;;;;;5114657;28;20024;-75
2022/09/13 08:21:18;;;;;;;0.70;0.50;;;19.10;99.90;;;;;;5095563;28;20030;-75
2022/09/13 08:23:44;;;;;;;0.65;0.65;;;19.30;99.90;;;;;;5114270;28;20031;-75
2022/09/13 08:26:10;;;;;;;2.80;0.80;;;19.70;99.90;;;;;;5096141;28;20023;-74
2022/09/13 08:28:39;;;;;;;0.70;0.60;;;20.70;99.90;;;;;;5114150;28;20028;-75
2022/09/13 08:31:09;;;;;;;0.40;0.40;;;22.60;99.90;;;;;;5095610;28;20103;-75
2022/09/13 08:33:38;;;;;;;0.73;0.63;;;22.70;99.90;;;;;;5095494;28;20039;-75
2022/09/13 08:36:04;;;;;;;3.80;0.50;;;23.50;99.90;;;;;;5095712;28;20020;-75
2022/09/13 08:38:31;;;;;;;1.65;0.40;;;24.00;99.90;;;;;;5114003;28;20027;-75
2022/09/13 08:41:04;;;;;;;1.52;0.90;;;24.50;99.90;;;;;;5114248;28;20020;-75
2022/09/13 08:43:45;;;;;;;1.35;0.57;;;24.90;99.90;;;;;;5095552;28;20052;-75
2022/09/13 08:46:25;;;;;;;0.60;0.57;;;25.00;99.90;;;;;;5095525;28;20024;-75
2022/09/13 08:48:53;;;;;;;0.88;0.70;;;24.60;99.90;;;;;;5113617;28;20097;-75
2022/09/13 08:51:41;;;;;;;0.70;0.70;;;24.50;99.90;;;;;;5113493;28;20111;-75
2022/09/13 08:54:10;;;;;;;0.75;0.75;;;24.30;99.90;;;;;;5113603;28;20031;-75
2022/09/13 08:56:55;;;;;;;;;;;23.80;99.90;;;;;;5096107;28;20118;-75
2022/09/13 08:59:45;;;;;;;0.40;0.40;;;23.60;99.90;;;;;;5095431;28;19986;-76
2022/09/13 09:02:36;;;;;;;0.77;0.77;;;23.40;99.90;;;;;;5095279;28;20096;-75
2022/09/13 09:05:10;;;;;;;0.30;0.30;;;23.40;99.90;;;;;;5095032;28;20126;-76
2022/09/13 09:07:42;;;;;;;1.45;0.70;;;23.50;99.90;;;;;;5094821;28;20028;-75
2022/09/13 09:10:41;;;;;;;3.40;0.65;;;23.60;99.90;;;;;;5095460;28;20475;-77
2022/09/13 09:13:07;;;;;;;0.32;0.32;;;24.10;99.90;;;;;;5065828;28;20032;-76
2022/09/13 09:15:41;;;;;;;2.10;1.38;;;24.40;99.90;;;;;;5113322;28;20032;-75
2022/09/13 09:18:38;;;;;;;0.60;0.60;;;24.60;99.90;;;;;;5095084;28;20027;-74
2022/09/13 09:21:09;;;;;;;2.20;0.38;;;24.30;99.90;;;;;;5081788;28;20484;-75
2022/09/13 09:23:42;;;;;;;1.17;1.08;;;24.60;99.90;;;;;;5113266;28;20023;-75
2022/09/13 09:26:29;;;;;;;0.60;0.60;;;24.70;99.90;;;;;;5094732;28;20115;-76
2022/09/13 09:29:16;;;;;;;1.60;1.48;;;24.80;99.90;;;;;;5094699;28;20030;-76
2022/09/13 09:31:53;;;;;;;0.95;0.50;;;24.90;99.90;;;;;;5112739;28;20038;-75
2022/09/13 09:34:31;;;;;;;0.52;0.52;;;25.10;99.90;;;;;;5113020;28;20051;-77
2022/09/13 09:37:06;;;;;;;5.75;0.38;;;25.10;99.90;;;;;;5113281;28;20016;-76
2022/09/13 09:39:37;;;;;;;0.60;0.60;;;25.40;99.90;;;;;;5094766;28;20027;-76
2022/09/13 09:42:09;;;;;;;0.80;0.80;;;25.40;99.90;;;;;;5095112;28;20563;-76
2022/09/13 09:44:38;;;;;;;0.65;0.60;;;25.40;99.90;;;;;;5094308;28;20027;-76
2022/09/13 09:47:14;;;;;;;0.47;0.47;;;25.40;99.90;;;;;;5112946;28;20024;-76
2022/09/13 09:52:52;;;;;;;0.40;0.40;;;25.20;99.90;;;;;;5113039;28;20092;-77
2022/09/13 09:55:36;;;;;;;0.30;0.30;;;25.30;99.90;;;;;;5113161;28;20020;-79
2022/09/13 09:58:07;;;;;;;0.70;0.70;;;25.30;99.90;;;;;;5094700;28;20047;-76
2022/09/13 10:00:53;;;;;;;0.60;0.43;;;25.60;99.90;;;;;;5113224;28;20024;-78
2022/09/13 10:03:25;;;;;;;1.40;0.93;;;25.80;99.90;;;;;;5094476;28;20024;-75
2022/09/13 10:06:07;;;;;;;0.85;0.85;;;26.00;99.90;;;;;;5094356;28;20069;-77
2022/09/13 10:08:36;;;;;;;0.40;0.40;;;26.30;99.90;;;;;;5112657;28;20031;-78
2022/09/13 10:11:02;;;;;;;1.30;0.93;;;26.40;99.90;;;;;;5112609;28;20024;-77
2022/09/13 10:13:29;;;;;;;2.92;0.68;;;26.70;99.90;;;;;;5112562;28;20400;-76
2022/09/13 10:15:57;;;;;;;5.28;0.90;;;26.60;99.90;;;;;;5112710;28;20041;-77
2022/09/13 10:18:25;;;;;;;1.87;0.80;;;26.60;99.90;;;;;;5112668;28;20024;-77
2022/09/13 10:21:18;;;;;;;0.47;0.47;;;26.60;99.90;;;;;;5112231;28;20019;-77
2022/09/13 10:23:45;;;;;;;1.67;0.80;;;26.80;99.90;;;;;;5112344;28;20069;-77
2022/09/13 10:26:18;;;;;;;1.17;0.63;;;27.10;99.90;;;;;;5112338;28;20023;-76
2022/09/13 10:29:09;;;;;;;0.50;0.50;;;27.30;98.30;;;;;;5112218;28;20027;-76
2022/09/13 10:31:40;;;;;;;1.90;0.95;;;27.40;97.40;;;;;;5094443;28;20084;-75
2022/09/13 10:34:16;;;;;;;3.38;0.65;;;27.40;97.30;;;;;;5112275;28;20070;-76
2022/09/13 10:37:04;;;;;;;5.28;0.90;;;27.40;96.20;;;;;;5093997;28;20019;-76
2022/09/13 10:39:35;;;;;;;0.40;0.40;;;27.60;96.30;;;;;;5112334;28;20031;-77
2022/09/13 10:42:06;;;;;;;0.98;0.73;;;27.80;95.10;;;;;;5112263;28;20020;-77
2022/09/13 10:44:43;;;;;;;3.08;1.42;;;28.10;94.50;;;;;;5113903;28;20022;-76
2022/09/13 10:47:23;;;;;;;0.40;0.40;;;28.20;92.80;;;;;;5116136;28;20049;-76
2022/09/13 10:49:54;;;;;;;4.50;1.17;;;28.40;91.80;;;;;;5116194;28;20111;-77
2022/09/13 10:52:33;;;;;;;0.45;0.40;;;28.50;87.70;;;;;;5115948;28;20085;-76
2022/09/13 10:55:19;;;;;;;1.27;0.70;;;28.40;89.10;;;;;;5115764;28;20423;-76
2022/09/13 10:57:46;;;;;;;0.95;0.88;;;28.50;88.80;;;;;;5115719;28;20027;-76
2022/09/13 11:00:24;;;;;;;0.35;0.35;;;28.60;88.10;;;;;;5115561;28;20031;-77
2022/09/13 11:03:11;;;;;;;0.40;0.40;;;28.60;85.90;;;;;;5115559;28;20034;-76
2022/09/13 11:05:55;;;;;;;1.60;0.73;;;28.80;85.20;;;;;;5115481;28;20047;-76
2022/09/13 11:08:42;;;;;;;0.50;0.50;;;28.50;84.90;;;;;;5115548;28;20023;-75
2022/09/13 11:11:19;;;;;;;0.70;0.70;;;28.70;85.10;;;;;;5115596;28;20058;-76
2022/09/13 11:13:51;;;;;;;0.30;0.30;;;28.90;85.10;;;;;;5115489;28;20035;-75
2022/09/13 11:16:30;;;;;;;0.45;0.40;;;29.10;83.50;;;;;;5115441;28;20042;-78
2022/09/13 11:19:25;;;;;;;0.32;0.32;;;29.30;83.20;;;;;;5115270;28;20031;-77
2022/09/13 11:22:13;;;;;;;1.10;0.85;;;29.50;85.20;;;;;;5115338;28;20027;-77
2022/09/13 11:24:54;;;;;;;;;;;29.60;82.90;;;;;;5115929;28;20028;-75
2022/09/13 11:27:46;;;;;;;0.55;0.55;;;29.90;81.60;;;;;;5115358;28;20356;-76
2022/09/13 11:30:21;;;;;;;0.30;0.30;;;29.90;77.60;;;;;;5097058;28;20031;-76
2022/09/13 11:33:21;;;;;;;0.45;0.45;;;30.00;78.20;;;;;;5115087;28;20024;-75
2022/09/13 11:36:05;;;;;;;0.75;0.55;;;30.30;78.70;;;;;;5115096;28;20476;-76
2022/09/13 11:38:51;;;;;;;0.80;0.80;;;30.40;76.40;;;;;;5115251;28;20016;-76
2022/09/13 11:41:29;;;;;;;1.38;0.55;;;30.40;76.20;;;;;;5115095;28;20448;-76
2022/09/13 11:44:32;;;;;;;0.38;0.38;;;30.70;75.40;;;;;;5115214;28;20103;-76
2022/09/13 11:47:19;;;;;;;0.80;0.80;;;30.70;74.10;;;;;;5012507;28;20040;-76
2022/09/13 11:49:52;;;;;;;1.00;0.68;;;30.70;74.60;;;;;;5108251;28;20031;-76
2022/09/13 11:52:17;;;;;;;0.45;0.45;;;30.70;74.00;;;;;;5114746;28;20070;-76
2022/09/13 11:54:58;;;;;;;0.47;0.40;;;30.70;74.40;;;;;;5114419;28;20551;-76
2022/09/13 11:57:39;;;;;;;0.40;0.40;;;30.80;74.20;;;;;;5095276;28;20049;-78
2022/09/13 12:00:45;;;;;;;0.68;0.60;;;31.00;72.00;;;;;;5114851;28;20019;-77
2022/09/13 12:03:43;;;;;;;1.35;0.65;;;30.90;71.80;;;;;;5114931;28;20015;-74
2022/09/13 12:06:17;;;;;;;0.47;0.47;;;30.90;69.70;;;;;;5114600;28;20539;-75
2022/09/13 12:08:53;;;;;;;0.30;0.30;;;30.90;70.40;;;;;;5114517;28;20031;-74
2022/09/13 12:11:44;;;;;;;0.77;0.77;;;30.60;70.90;;;;;;5114276;28;20024;-75
2022/09/13 12:14:29;;;;;;;0.43;0.43;;;30.70;73.80;;;;;;5114504;28;20038;-75
2022/09/13 12:17:23;;;;;;;1.85;0.85;;;30.70;72.80;;;;;;5096012;28;20027;-76
2022/09/13 12:19:53;;;;;;;0.43;0.43;;;30.80;73.60;;;;;;5093453;28;20539;-76
2022/09/13 12:22:25;;;;;;;0.38;0.38;;;30.60;72.60;;;;;;5114457;28;20484;-76
2022/09/13 12:25:02;;;;;;;0.40;0.40;;;30.80;74.60;;;;;;5114160;28;20024;-76
2022/09/13 12:27:38;;;;;;;0.43;0.40;;;30.80;74.60;;;;;;5114216;28;20031;-75
2022/09/13 12:30:15;;;;;;;0.35;0.35;;;30.70;74.60;;;;;;5114098;28;20057;-76
2022/09/13 12:32:46;;;;;;;0.40;0.40;;;30.80;75.20;;;;;;5096048;28;20369;-76
2022/09/13 12:35:36;;;;;;;0.30;0.30;;;30.90;74.60;;;;;;5113929;28;20016;-76
2022/09/13 12:38:32;;;;;;;0.70;0.70;;;31.30;73.40;;;;;;5113939;28;20019;-75
2022/09/13 12:41:10;;;;;;;0.95;0.38;;;31.70;71.90;;;;;;5095812;28;20047;-75
2022/09/13 12:44:01;;;;;;;12.20;0.32;;;31.80;72.40;;;;;;5113944;28;20024;-76
2022/09/13 12:46:48;;;;;;;0.30;0.30;;;32.00;68.30;;;;;;5114607;28;20023;-76
2022/09/13 12:49:32;;;;;;;5.20;0.70;;;32.00;70.90;;;;;;5113619;28;20020;-75
2022/09/13 12:52:11;;;;;;;0.80;0.47;;;31.70;69.70;;;;;;5113627;28;20031;-76
2022/09/13 12:55:04;;;;;;;0.32;0.32;;;32.00;69.70;;;;;;5113689;28;20028;-76
2022/09/13 12:57:33;;;;;;;0.50;0.50;;;32.10;67.80;;;;;;5113702;28;20563;-75
2022/09/13 13:00:25;;;;;;;0.98;0.98;;;32.20;68.80;;;;;;5113689;28;20027;-76
2022/09/13 13:03:11;;;;;;;1.90;1.38;;;32.60;67.40;;;;;;5113593;28;20141;-76
2022/09/13 13:05:38;;;;;;;0.60;0.60;;;33.00;66.20;;;;;;5113316;28;20043;-76
2022/09/13 13:08:26;;;;;;;2.42;0.70;;;33.50;64.60;;;;;;5095075;28;20042;-76
2022/09/13 13:11:09;;;;;;;0.93;0.40;;;33.60;64.50;;;;;;5113274;28;20379;-75
2022/09/13 13:13:41;;;;;;;1.23;1.13;;;33.20;63.90;;;;;;5114339;28;20044;-76
2022/09/13 13:16:47;;;;;;;0.68;0.68;;;32.50;66.20;;;;;;5113441;28;20113;-75
2022/09/13 13:19:31;;;;;;;0.50;0.50;;;32.50;66.30;;;;;;4994365;28;20018;-74
2022/09/13 13:22:35;;;;;;;1.17;0.35;;;33.20;64.50;;;;;;4994368;28;20026;-74
2022/09/13 13:25:38;;;;;;;0.47;0.47;;;33.30;64.20;;;;;;5010508;28;20056;-75
2022/09/13 13:28:40;;;;;;;0.60;0.60;;;33.20;63.50;;;;;;5010719;28;20395;-75